Time;durP1;ratioP1;P1;durP2;ratioP2;P2;SDS_P1;SDS_P2;PMS_P1;PMS_P2;Temp;Humidity;BMP_temperature;BMP_pressure;BME280_temperature;BME280_humidity;BME280_pressure;Samples;Min_cycle;Max_cycle;Signal;HPM_P1;HPM_P2
2024/03/05 00:01:39;;;;;;;0.40;0.40;;;;;;;3.25;100.00;100225.47;5056022;28;20053;-80
2024/03/05 00:04:08;;;;;;;0.68;0.68;;;;;;;4.11;100.00;100390.31;5057590;28;20055;-85
2024/03/05 00:06:34;;;;;;;0.30;0.30;;;;;;;3.46;100.00;100278.75;5061076;28;20063;-86
2024/03/05 00:08:59;;;;;;;4.43;4.22;;;;;;;3.94;100.00;100369.13;5060902;28;20033;-83
2024/03/05 00:11:28;;;;;;;1.00;1.00;;;;;;;3.40;100.00;100283.81;5059131;28;20055;-83
2024/03/05 00:13:53;;;;;;;2.65;0.93;;;;;;;4.08;100.00;100418.81;5055294;28;20052;-82
2024/03/05 00:16:19;;;;;;;1.20;1.10;;;;;;;4.03;100.00;100418.69;5059286;28;20692;-82
2024/03/05 00:18:47;;;;;;;2.35;2.25;;;;;;;4.08;100.00;100430.06;5056550;28;20829;-86
2024/03/05 00:21:13;;;;;;;0.40;0.40;;;;;;;4.13;100.00;100436.25;5055717;28;20044;-83
2024/03/05 00:23:39;;;;;;;0.80;0.80;;;;;;;3.62;100.00;100338.00;5061978;28;20037;-81
2024/03/05 00:26:06;;;;;;;0.73;0.73;;;;;;;4.27;100.00;100452.19;5057845;28;20048;-83
2024/03/05 00:28:34;;;;;;;13.10;12.25;;;;;;;4.18;100.00;100475.31;5059897;28;20163;-84
2024/03/05 00:31:00;;;;;;;0.40;0.40;;;;;;;3.99;100.00;100446.25;5057185;28;20044;-81
2024/03/05 00:33:26;;;;;;;8.50;7.95;;;;;;;3.61;100.00;100398.50;5059581;28;20055;-81
2024/03/05 00:35:52;;;;;;;0.63;0.63;;;;;;;3.89;100.00;100457.25;5050992;28;20045;-81
2024/03/05 00:38:17;;;;;;;3.03;2.83;;;;;;;4.12;100.00;100506.31;5060663;28;20055;-79
2024/03/05 00:40:43;;;;;;;3.42;3.30;;;;;;;3.60;100.00;100430.47;5056295;28;20052;-78
2024/03/05 00:43:09;;;;;;;1.02;1.02;;;;;;;4.17;100.00;100502.16;5055417;28;20048;-80
2024/03/05 00:45:35;;;;;;;0.50;0.50;;;;;;;3.63;100.00;100437.44;5053064;28;20120;-79
2024/03/05 00:48:02;;;;;;;15.88;13.52;;;;;;;4.21;100.00;100558.50;5049057;28;20460;-80
2024/03/05 00:50:27;;;;;;;1.40;1.35;;;;;;;3.32;100.00;100452.13;5054782;28;20106;-80
2024/03/05 00:52:53;;;;;;;0.60;0.60;;;;;;;3.98;100.00;100587.31;5048939;28;20432;-79
2024/03/05 00:55:19;;;;;;;0.30;0.30;;;;;;;3.42;100.00;100518.13;5055114;28;20056;-81
2024/03/05 00:57:45;;;;;;;0.60;0.60;;;;;;;4.07;100.00;100659.38;5051236;28;20570;-80
2024/03/05 01:00:13;;;;;;;11.60;10.63;;;;;;;3.96;100.00;100684.16;5051116;28;20737;-82
2024/03/05 01:02:41;;;;;;;2.05;1.95;;;;;;;3.87;100.00;100692.53;5048578;28;21865;-83
2024/03/05 01:05:09;;;;;;;0.40;0.40;;;;;;;3.52;100.00;100661.13;5053521;28;20053;-81
2024/03/05 01:07:36;;;;;;;1.65;0.50;;;;;;;3.83;100.00;100755.53;5048851;28;20135;-80
2024/03/05 01:10:04;;;;;;;0.55;0.55;;;;;;;3.51;100.00;100719.06;5059791;28;20140;-82
2024/03/05 01:12:30;;;;;;;1.15;1.10;;;;;;;3.73;100.00;100777.72;5062528;28;20797;-82
2024/03/05 01:14:55;;;;;;;4.72;4.50;;;;;;;4.29;100.00;100888.63;5049179;28;20044;-82
2024/03/05 01:17:21;;;;;;;0.95;0.95;;;;;;;3.55;100.00;100793.53;5053218;28;20028;-83
2024/03/05 01:19:46;;;;;;;0.73;0.73;;;;;;;4.33;100.00;100958.91;5050400;28;20478;-83
2024/03/05 01:22:12;;;;;;;2.38;2.17;;;;;;;4.51;100.00;100961.22;5053291;28;20115;-82
2024/03/05 01:24:38;;;;;;;0.45;0.45;;;;;;;4.35;100.00;100953.75;5048837;28;20392;-82
2024/03/05 01:27:04;;;;;;;1.90;1.83;;;;;;;4.31;100.00;100954.47;5047847;28;20036;-81
2024/03/05 01:29:30;;;;;;;0.82;0.82;;;;;;;3.92;100.00;100895.16;5052037;28;20046;-83
2024/03/05 01:31:59;;;;;;;0.40;0.40;;;;;;;4.17;100.00;100977.41;5053198;28;20063;-86
2024/03/05 01:34:25;;;;;;;1.27;1.27;;;;;;;4.58;100.00;101045.47;5064496;28;20048;-84
2024/03/05 01:36:56;;;;;;;0.43;0.43;;;;;;;4.41;100.00;101034.50;5056517;28;20083;-82
2024/03/05 01:39:27;;;;;;;0.30;0.30;;;;;;;4.41;100.00;101055.28;5050088;28;20048;-82
2024/03/05 01:41:54;;;;;;;0.30;0.30;;;;;;;3.89;100.00;100991.09;5054896;28;20063;-85
2024/03/05 01:44:20;;;;;;;0.45;0.45;;;;;;;3.81;100.00;100983.03;5054202;28;20143;-82
2024/03/05 01:46:52;;;;;;;1.25;1.15;;;;;;;4.39;100.00;101099.41;5055460;28;20068;-80
2024/03/05 01:49:21;;;;;;;0.57;0.57;;;;;;;4.41;100.00;101134.13;5060386;28;20074;-81
2024/03/05 01:51:49;;;;;;;5.15;4.85;;;;;;;4.25;100.00;101120.50;5054587;28;20058;-81
2024/03/05 01:54:17;;;;;;;2.08;1.98;;;;;;;4.46;100.00;101191.44;5052693;28;20045;-80
2024/03/05 01:56:51;;;;;;;0.28;0.28;;;;;;;4.33;100.00;101190.13;5061041;28;20420;-80
2024/03/05 01:59:18;;;;;;;2.05;1.95;;;;;;;4.30;100.00;101217.69;5051887;28;20044;-81
2024/03/05 02:01:45;;;;;;;0.50;0.50;;;;;;;4.41;100.00;101264.03;5055699;28;20037;-83
2024/03/05 02:04:11;;;;;;;0.50;0.50;;;;;;;4.28;100.00;101250.50;5055755;28;20062;-82
2024/03/05 02:06:40;;;;;;;0.70;0.70;;;;;;;4.28;100.00;101295.53;5052433;28;20419;-82
2024/03/05 02:09:11;;;;;;;0.30;0.30;;;;;;;4.30;100.00;101339.78;5045083;28;20044;-80
2024/03/05 02:11:38;;;;;;;0.40;0.40;;;;;;;4.01;100.00;101374.13;5043226;28;20351;-82
2024/03/05 02:14:04;;;;;;;0.80;0.80;;;;;;;4.35;100.00;101455.16;5054624;28;20044;-81
2024/03/05 02:16:29;;;;;;;1.88;1.77;;;;;;;4.20;100.00;101452.81;5056429;28;20118;-82
2024/03/05 02:18:55;;;;;;;4.50;3.20;;;;;;;3.84;100.00;101401.09;5058315;28;20055;-81
2024/03/05 02:21:21;;;;;;;2.35;2.25;;;;;;;4.42;100.00;101542.94;5059851;28;20128;-80
2024/03/05 02:23:48;;;;;;;0.95;0.95;;;;;;;4.33;100.00;101543.47;5062554;28;20024;-81
2024/03/05 02:26:17;;;;;;;1.10;1.10;;;;;;;4.62;100.00;101608.81;5062916;28;20133;-80
2024/03/05 02:28:44;;;;;;;8.27;7.85;;;;;;;4.54;100.00;101605.88;5049201;28;20112;-80
2024/03/05 02:31:09;;;;;;;0.82;0.82;;;;;;;4.62;100.00;101653.00;5045780;28;20848;-80
2024/03/05 02:33:35;;;;;;;0.40;0.40;;;;;;;4.43;100.00;101635.69;5056765;28;20143;-79
2024/03/05 02:36:01;;;;;;;2.47;2.38;;;;;;;4.43;100.00;101669.47;5053893;28;20044;-81
2024/03/05 02:38:26;;;;;;;1.80;1.70;;;;;;;4.45;100.00;101665.25;5054026;28;20767;-79
2024/03/05 02:40:53;;;;;;;2.80;2.65;;;;;;;4.27;100.00;101669.59;5052104;28;20110;-78
2024/03/05 02:43:20;;;;;;;1.17;1.17;;;;;;;4.73;100.00;101763.56;5052297;28;20060;-83
2024/03/05 02:45:46;;;;;;;1.10;1.05;;;;;;;4.05;100.00;101654.72;5048712;28;20515;-79
2024/03/05 02:48:12;;;;;;;9.52;4.88;;;;;;;3.38;100.00;101585.84;5051316;28;20040;-79
2024/03/05 02:50:38;;;;;;;0.45;0.45;;;;;;;4.34;100.00;101768.69;5048594;28;20091;-80
2024/03/05 02:53:04;;;;;;;1.60;1.50;;;;;;;3.77;100.00;101716.63;5057573;28;20037;-80
2024/03/05 02:55:30;;;;;;;1.27;1.17;;;;;;;4.74;100.00;101905.72;5054556;28;20047;-79
2024/03/05 02:57:55;;;;;;;2.15;2.05;;;;;;;4.59;100.00;101918.91;5047093;28;20436;-80
2024/03/05 03:00:23;;;;;;;1.58;1.48;;;;;;;4.06;100.00;101839.19;5057664;28;20052;-79
2024/03/05 03:02:50;;;;;;;3.78;3.58;;;;;;;4.73;100.00;101962.84;5064506;28;20032;-84
2024/03/05 03:05:21;;;;;;;0.22;0.22;;;;;;;4.47;100.00;101922.59;5051043;28;20500;-86
2024/03/05 03:07:47;;;;;;;0.60;0.60;;;;;;;4.25;100.00;101879.06;5057497;28;20553;-83
2024/03/05 03:10:13;;;;;;;7.68;7.20;;;;;;;4.98;100.00;102035.16;5053297;28;20061;-83
2024/03/05 03:12:39;;;;;;;0.30;0.30;;;;;;;4.91;100.00;102007.97;5056359;28;20060;-82
2024/03/05 03:15:08;;;;;;;2.25;2.15;;;;;;;5.02;100.00;102019.78;5055196;28;20044;-82
2024/03/05 03:17:37;;;;;;;2.05;1.95;;;;;;;4.41;100.00;101926.66;5062269;28;20430;-81
2024/03/05 03:20:04;;;;;;;0.40;0.40;;;;;;;4.43;100.00;101938.03;5056008;28;20243;-81
2024/03/05 03:22:30;;;;;;;0.70;0.70;;;;;;;4.50;100.00;101948.75;5063641;28;20059;-82
2024/03/05 03:24:58;;;;;;;0.73;0.60;;;;;;;4.98;100.00;102042.97;5063045;28;20036;-81
2024/03/05 03:27:24;;;;;;;34.15;5.45;;;;;;;5.10;100.00;102056.56;5055664;28;20041;-80
2024/03/05 03:29:51;;;;;;;0.50;0.50;;;;;;;4.11;100.00;101902.66;5059929;28;20031;-80
2024/03/05 03:32:18;;;;;;;2.55;2.45;;;;;;;5.06;100.00;102080.69;5065971;28;20082;-80
2024/03/05 03:34:45;;;;;;;3.92;3.72;;;;;;;5.23;100.00;102100.59;5061357;28;20055;-80
2024/03/05 03:37:14;;;;;;;0.75;0.60;;;;;;;5.21;100.00;102110.03;5063378;28;20053;-81
2024/03/05 03:39:43;;;;;;;1.77;1.70;;;;;;;5.14;100.00;102097.53;5054599;28;20052;-77
2024/03/05 03:42:10;;;;;;;2.15;2.00;;;;;;;5.35;100.00;102115.03;5066693;28;20267;-79
2024/03/05 03:44:37;;;;;;;0.85;0.85;;;;;;;5.27;100.00;102119.88;5060230;28;20374;-81
2024/03/05 03:47:04;;;;;;;0.90;0.77;;;;;;;4.74;100.00;102025.34;5065122;28;20048;-79
2024/03/05 03:49:30;;;;;;;3.67;3.35;;;;;;;5.10;100.00;102086.91;5058188;28;20071;-79
2024/03/05 03:51:56;;;;;;;3.08;2.97;;;;;;;5.03;100.00;102084.03;5065054;28;20419;-82
2024/03/05 03:54:22;;;;;;;1.77;1.52;;;;;;;4.50;100.00;101996.41;5066114;28;20051;-83
2024/03/05 03:56:50;;;;;;;0.40;0.40;;;;;;;4.91;100.00;102088.59;5062969;28;20035;-83
2024/03/05 03:59:17;;;;;;;17.30;8.95;;;;;;;4.43;100.00;101996.94;5052650;28;20036;-82
2024/03/05 04:01:49;;;;;;;2.28;2.08;;;;;;;4.92;100.00;102095.59;5061585;28;20040;-83
2024/03/05 04:04:15;;;;;;;2.45;2.28;;;;;;;4.78;100.00;102068.00;5052877;28;20060;-82
2024/03/05 04:06:42;;;;;;;0.65;0.65;;;;;;;4.42;100.00;102016.84;5063491;28;20049;-82
2024/03/05 04:09:09;;;;;;;0.40;0.40;;;;;;;4.81;100.00;102087.25;5061086;28;20037;-84
2024/03/05 04:11:38;;;;;;;0.30;0.30;;;;;;;4.90;100.00;102110.22;5060437;28;20063;-82
2024/03/05 04:14:04;;;;;;;1.25;1.25;;;;;;;4.76;100.00;102067.03;5073053;28;20472;-82
2024/03/05 04:16:30;;;;;;;3.30;3.10;;;;;;;4.79;100.00;102073.25;5060840;28;20127;-82
2024/03/05 04:18:57;;;;;;;1.95;1.77;;;;;;;4.86;100.00;102149.88;5062272;28;20135;-81
2024/03/05 04:21:23;;;;;;;1.00;1.00;;;;;;;4.23;100.00;101996.78;5051278;28;20060;-79
2024/03/05 04:23:50;;;;;;;0.70;0.70;;;;;;;4.11;100.00;101990.97;5054445;28;20047;-80
2024/03/05 04:26:23;;;;;;;8.88;2.88;;;;;;;4.37;100.00;102067.66;5057998;28;20048;-82
2024/03/05 04:28:54;;;;;;;0.30;0.30;;;;;;;4.93;100.00;102239.53;5057494;28;20121;-82
2024/03/05 04:31:20;;;;;;;12.98;11.38;;;;;;;4.34;100.00;102194.84;5066624;28;20055;-83
2024/03/05 04:33:49;;;;;;;4.22;4.00;;;;;;;4.94;100.00;102319.34;5054256;28;20052;-84
2024/03/05 04:36:17;;;;;;;2.95;2.85;;;;;;;4.94;100.00;102286.44;5056879;28;20080;-84
2024/03/05 04:38:43;;;;;;;0.52;0.52;;;;;;;4.51;100.00;102259.84;5058454;28;20116;-82
2024/03/05 04:41:15;;;;;;;0.73;0.73;;;;;;;4.39;100.00;102263.53;5051748;28;20627;-81
2024/03/05 04:43:41;;;;;;;0.60;0.60;;;;;;;4.75;100.00;102307.97;5054248;28;20044;-81
2024/03/05 04:46:11;;;;;;;1.63;1.52;;;;;;;4.95;100.00;102347.16;5060697;28;20060;-81
2024/03/05 04:48:40;;;;;;;3.70;3.45;;;;;;;5.23;100.00;102397.28;5067655;28;20419;-80
2024/03/05 04:51:09;;;;;;;7.80;7.47;;;;;;;4.74;100.00;102326.97;5062879;28;20759;-79
2024/03/05 04:53:38;;;;;;;4.53;4.22;;;;;;;4.88;100.00;102348.53;5057304;28;20032;-81
2024/03/05 04:56:05;;;;;;;0.95;0.95;;;;;;;4.94;100.00;102374.91;5057588;28;20057;-81
2024/03/05 04:58:31;;;;;;;1.85;1.75;;;;;;;4.68;100.00;102349.16;5081132;28;20518;-82
2024/03/05 05:00:56;;;;;;;1.25;1.25;;;;;;;4.71;100.00;102354.53;5064951;28;20131;-81
2024/03/05 05:03:22;;;;;;;8.70;3.83;;;;;;;4.59;100.00;102337.44;5053083;28;20344;-80
2024/03/05 05:05:47;;;;;;;3.15;2.95;;;;;;;4.83;100.00;102399.41;5062964;28;20040;-81
2024/03/05 05:08:13;;;;;;;3.15;3.03;;;;;;;4.67;100.00;102396.78;5064898;28;20438;-83
2024/03/05 05:10:40;;;;;;;1.27;1.20;;;;;;;5.04;100.00;102482.97;5053456;28;20126;-81
2024/03/05 05:13:06;;;;;;;3.80;1.95;;;;;;;4.54;100.00;102424.69;5046268;28;20061;-82
2024/03/05 05:15:33;;;;;;;1.70;1.58;;;;;;;4.90;100.00;102487.38;5057751;28;20070;-81
2024/03/05 05:17:59;;;;;;;2.10;1.85;;;;;;;4.91;100.00;102507.38;5050076;28;20124;-82
2024/03/05 05:20:27;;;;;;;0.57;0.57;;;;;;;4.76;100.00;102486.59;5066073;28;20111;-83
2024/03/05 05:22:53;;;;;;;2.25;2.15;;;;;;;4.62;100.00;102479.72;5057111;28;20059;-81
2024/03/05 05:25:21;;;;;;;7.22;4.32;;;;;;;4.79;100.00;102502.34;5057833;28;20103;-82
2024/03/05 05:27:50;;;;;;;1.20;1.20;;;;;;;4.73;100.00;102499.44;5063926;28;20462;-81
2024/03/05 05:30:20;;;;;;;0.50;0.50;;;;;;;4.53;100.00;102485.25;5064463;28;20060;-82
2024/03/05 05:32:49;;;;;;;1.77;1.67;;;;;;;4.94;100.00;102562.19;5063599;28;20024;-81
2024/03/05 05:35:15;;;;;;;0.85;0.85;;;;;;;4.74;100.00;102548.00;5061255;28;20052;-81
2024/03/05 05:37:42;;;;;;;0.30;0.30;;;;;;;4.51;100.00;102502.47;5056218;28;20052;-81
2024/03/05 05:40:11;;;;;;;4.75;4.55;;;;;;;4.63;100.00;102536.97;5063150;28;20563;-82
2024/03/05 05:42:42;;;;;;;0.50;0.50;;;;;;;4.59;100.00;102500.34;5065792;28;20408;-80
2024/03/05 05:45:12;;;;;;;1.40;1.40;;;;;;;4.49;100.00;102539.59;5055272;28;20424;-80
2024/03/05 05:47:41;;;;;;;6.85;6.45;;;;;;;4.66;100.00;102577.91;5093573;28;20036;-81
2024/03/05 05:50:17;;;;;;;0.60;0.60;;;;;;;4.80;100.00;102438.22;5065308;28;20047;-80
2024/03/05 05:52:54;;;;;;;0.40;0.40;;;;;;;4.89;100.00;102748.28;5060397;28;20682;-81
2024/03/05 05:55:22;;;;;;;0.30;0.30;;;;;;;4.59;100.00;102706.63;5062086;28;20044;-81
2024/03/05 05:57:48;;;;;;;0.82;0.82;;;;;;;4.48;100.00;102685.97;5062342;28;20051;-81
2024/03/05 06:03:00;;;;;;;3.95;3.78;;;;;;;4.49;100.00;102693.84;5058745;28;20070;-77
2024/03/05 06:05:31;;;;;;;1.73;1.63;;;;;;;4.47;100.00;102687.66;5065696;28;20123;-78
2024/03/05 06:07:59;;;;;;;8.93;8.48;;;;;;;4.75;100.00;102723.16;5061642;28;20064;-78
2024/03/05 06:10:25;;;;;;;4.30;4.10;;;;;;;4.71;100.00;102716.88;5062310;28;20507;-78
2024/03/05 06:12:51;;;;;;;3.53;3.33;;;;;;;4.75;100.00;102730.94;5052440;28;20057;-77
2024/03/05 06:15:17;;;;;;;0.60;0.60;;;;;;;4.52;100.00;102681.06;5048976;28;20051;-78
2024/03/05 06:17:43;;;;;;;1.08;1.08;;;;;;;4.78;100.00;102734.66;5065460;28;20044;-76
2024/03/05 06:20:10;;;;;;;1.48;1.38;;;;;;;4.82;100.00;102752.25;5062359;28;20104;-76
2024/03/05 06:22:43;;;;;;;0.30;0.30;;;;;;;4.90;100.00;102767.44;5054604;28;20036;-75
2024/03/05 06:25:11;;;;;;;7.90;7.60;;;;;;;4.67;100.00;102694.09;5057159;28;20068;-78
2024/03/05 06:27:38;;;;;;;1.40;1.30;;;;;;;4.59;100.00;102701.44;5062912;28;20040;-77
2024/03/05 06:30:07;;;;;;;0.32;0.32;;;;;;;4.93;100.00;102767.59;5063226;28;20037;-76
2024/03/05 06:32:46;;;;;;;1.75;1.65;;;;;;;4.87;100.00;102781.16;5061848;28;20039;-76
2024/03/05 06:35:16;;;;;;;3.00;2.90;;;;;;;4.93;100.00;102788.41;5062513;28;20435;-76
2024/03/05 06:37:46;;;;;;;6.15;5.18;;;;;;;5.15;100.00;102824.44;5061713;28;20080;-75
2024/03/05 06:40:13;;;;;;;0.88;0.88;;;;;;;4.99;100.00;102800.09;5053168;28;20098;-78
2024/03/05 06:42:41;;;;;;;0.50;0.50;;;;;;;4.77;100.00;102711.13;5063648;28;20049;-77
2024/03/05 06:45:14;;;;;;;0.95;0.95;;;;;;;4.92;100.00;102742.41;5053274;28;20032;-75
2024/03/05 06:47:44;;;;;;;;;;;;;;;5.25;100.00;102835.50;5062045;28;20047;-76
2024/03/05 06:50:19;;;;;;;0.60;0.60;;;;;;;4.95;100.00;102802.41;5050074;28;19928;-78
2024/03/05 06:58:15;;;;;;;2.80;2.70;;;;;;;5.43;100.00;102885.22;5056769;28;20396;-77
2024/03/05 07:00:40;;;;;;;2.50;2.40;;;;;;;5.28;100.00;102886.84;5058861;28;20081;-75
2024/03/05 07:03:06;;;;;;;5.38;3.30;;;;;;;5.27;100.00;102872.97;5059254;28;20066;-75
2024/03/05 07:05:33;;;;;;;3.42;3.22;;;;;;;5.35;100.00;102846.50;5062611;28;20037;-74
2024/03/05 07:08:02;;;;;;;0.77;0.77;;;;;;;5.15;100.00;102801.03;5059072;28;20482;-76
2024/03/05 07:10:28;;;;;;;2.95;2.75;;;;;;;5.36;100.00;102859.63;5062330;28;20123;-75
2024/03/05 07:12:55;;;;;;;1.92;1.15;;;;;;;5.34;100.00;102849.88;5062657;28;20059;-75
2024/03/05 07:15:21;;;;;;;0.57;0.57;;;;;;;5.01;100.00;102826.19;5059074;28;20102;-76
2024/03/05 07:17:48;;;;;;;0.30;0.30;;;;;;;5.58;100.00;102900.84;5065101;28;20033;-77
2024/03/05 07:20:24;;;;;;;0.40;0.40;;;;;;;5.01;100.00;102821.00;5068840;28;20047;-78
2024/03/05 07:22:53;;;;;;;0.50;0.50;;;;;;;5.46;100.00;102869.75;5061837;28;20131;-78
2024/03/05 07:25:22;;;;;;;0.55;0.55;;;;;;;5.32;100.00;102828.97;5063901;28;20041;-76
2024/03/05 07:27:49;;;;;;;0.50;0.50;;;;;;;5.44;100.00;102853.16;5064697;28;20370;-76
2024/03/05 07:30:19;;;;;;;1.50;1.48;;;;;;;5.36;100.00;102848.28;5061574;28;20520;-75
2024/03/05 07:32:46;;;;;;;0.28;0.28;;;;;;;5.35;100.00;102828.25;5061007;28;20016;-77
2024/03/05 07:35:13;;;;;;;0.47;0.47;;;;;;;5.39;100.00;102814.63;5060229;28;20545;-75
2024/03/05 07:37:45;;;;;;;1.50;0.90;;;;;;;5.43;100.00;102799.28;5066297;28;20040;-78
2024/03/05 07:40:22;;;;;;;0.30;0.30;;;;;;;5.52;100.00;102831.88;5067890;28;20067;-76
2024/03/05 07:42:50;;;;;;;0.30;0.30;;;;;;;5.44;100.00;102801.06;5058454;28;20048;-76
2024/03/05 07:45:16;;;;;;;2.55;2.45;;;;;;;5.37;100.00;102764.19;5078081;28;20040;-76
2024/03/05 07:47:46;;;;;;;1.58;1.50;;;;;;;5.39;100.00;102758.25;5061273;28;20028;-78
2024/03/05 07:50:14;;;;;;;11.90;3.00;;;;;;;5.45;100.00;102747.28;5066366;28;20061;-76
2024/03/05 07:52:44;;;;;;;4.88;4.57;;;;;;;5.25;100.00;102739.22;5061790;28;20063;-76
2024/03/05 07:55:14;;;;;;;4.95;4.38;;;;;;;5.37;100.00;102732.94;5066560;28;20109;-76
2024/03/05 07:57:40;;;;;;;5.35;5.13;;;;;;;5.37;100.00;102732.94;5061796;28;20654;-78
2024/03/05 08:00:11;;;;;;;1.67;1.58;;;;;;;5.45;100.00;102788.94;5077465;28;20024;-76
2024/03/05 08:02:45;;;;;;;3.92;3.72;;;;;;;5.44;100.00;102769.81;5064010;28;20032;-75
2024/03/05 08:05:11;;;;;;;1.15;1.05;;;;;;;5.37;100.00;102756.38;5066962;28;20054;-76
2024/03/05 08:07:38;;;;;;;8.55;8.18;;;;;;;5.32;100.00;102742.19;5063880;28;20041;-75
2024/03/05 08:10:08;;;;;;;1.50;1.40;;;;;;;5.58;100.00;102786.28;5056945;28;20098;-74
2024/03/05 08:12:38;;;;;;;1.10;1.08;;;;;;;5.63;100.00;102792.63;5063119;28;20154;-76
2024/03/05 08:15:06;;;;;;;0.30;0.30;;;;;;;5.52;100.00;102765.06;5084396;28;20124;-75
2024/03/05 08:17:36;;;;;;;0.35;0.35;;;;;;;5.50;100.00;102770.19;5057374;28;20408;-77
2024/03/05 08:20:07;;;;;;;1.40;1.30;;;;;;;5.76;100.00;102802.09;5062261;28;20056;-76
2024/03/05 08:22:36;;;;;;;4.32;4.13;;;;;;;5.70;100.00;102791.28;5053431;28;20113;-76
2024/03/05 08:25:15;;;;;;;4.45;4.25;;;;;;;5.89;100.00;102804.56;5065611;28;20036;-77
2024/03/05 08:27:46;;;;;;;19.48;2.15;;;;;;;5.90;100.00;102787.25;5061857;28;20484;-76
2024/03/05 08:30:15;;;;;;;1.25;1.08;;;;;;;5.89;100.00;102764.59;5058980;28;20036;-76
2024/03/05 08:32:42;;;;;;;2.40;2.30;;;;;;;6.00;100.00;102747.91;5067168;28;20044;-74
2024/03/05 08:35:11;;;;;;;2.92;2.72;;;;;;;6.02;100.00;102722.81;5056443;28;20040;-75
2024/03/05 08:37:41;;;;;;;3.10;2.90;;;;;;;6.09;100.00;102683.25;5053755;28;20075;-75
2024/03/05 08:40:13;;;;;;;0.60;0.60;;;;;;;6.30;100.00;102673.09;5058432;28;20128;-76
2024/03/05 08:42:47;;;;;;;0.57;0.50;;;;;;;5.90;100.00;102524.09;5058513;28;20071;-77
2024/03/05 08:45:14;;;;;;;;;;;;;;;6.32;100.00;102527.16;5052726;28;20091;-74
2024/03/05 08:47:46;;;;;;;5.50;4.95;;;;;;;6.18;100.00;102408.25;5062237;28;19943;-77
2024/03/05 08:50:13;;;;;;;0.65;0.63;;;;;;;6.28;100.00;102342.75;5074340;28;20559;-75
2024/03/05 08:52:40;;;;;;;4.72;2.17;;;;;;;6.11;100.00;102233.34;5064683;28;20055;-77
2024/03/05 08:55:10;;;;;;;2.40;2.28;;;;;;;6.23;100.00;102117.47;5066263;28;20044;-75
2024/03/05 08:57:39;;;;;;;2.13;2.03;;;;;;;6.24;100.00;101991.50;5048223;28;20511;-76
2024/03/05 09:00:07;;;;;;;0.57;0.57;;;;;;;6.23;100.00;101809.91;5084612;28;20028;-75
2024/03/05 09:02:33;;;;;;;1.05;1.05;;;;;;;6.43;100.00;101584.75;5067078;28;20083;-77
2024/03/05 09:04:59;;;;;;;2.60;2.50;;;;;;;6.47;100.00;100970.50;5058949;28;20581;-76
2024/03/05 09:07:24;;;;;;;2.05;1.95;;;;;;;6.40;100.00;100882.56;5059344;28;20399;-77
2024/03/05 09:09:50;;;;;;;2.05;1.20;;;;;;;6.78;100.00;100862.59;5061831;28;20456;-77
2024/03/05 09:12:17;;;;;;;6.78;6.43;;;;;;;6.67;100.00;100760.69;5057440;28;20045;-75
2024/03/05 09:14:44;;;;;;;4.82;4.55;;;;;;;6.96;100.00;100805.63;5056400;28;20095;-75
2024/03/05 09:17:10;;;;;;;1.00;1.00;;;;;;;6.87;100.00;100763.69;5055817;28;20650;-75
2024/03/05 09:19:37;;;;;;;0.63;0.63;;;;;;;6.98;100.00;100711.75;5059281;28;20032;-76
2024/03/05 09:22:05;;;;;;;1.35;1.25;;;;;;;6.69;100.00;100641.59;5062940;28;20048;-75
2024/03/05 09:24:32;;;;;;;0.30;0.30;;;;;;;6.82;100.00;100642.75;5062467;28;20469;-76
2024/03/05 09:26:59;;;;;;;0.50;0.50;;;;;;;6.60;100.00;100571.03;5066079;28;20029;-76
2024/03/05 09:29:25;;;;;;;0.75;0.75;;;;;;;6.34;100.00;100537.56;5066425;28;20028;-76
2024/03/05 09:31:51;;;;;;;1.60;1.50;;;;;;;6.42;100.00;100562.91;5064553;28;20045;-76
2024/03/05 09:34:16;;;;;;;2.42;2.30;;;;;;;6.55;100.00;100537.09;5054295;28;20523;-76
2024/03/05 09:36:42;;;;;;;0.20;0.20;;;;;;;6.67;100.00;100561.59;5065511;28;20036;-76
2024/03/05 09:39:09;;;;;;;1.38;1.33;;;;;;;6.36;100.00;100477.63;5058172;28;20032;-77
2024/03/05 09:41:42;;;;;;;2.65;1.60;;;;;;;6.67;100.00;100504.25;5057024;28;20041;-76
2024/03/05 09:44:08;;;;;;;1.75;1.65;;;;;;;6.92;100.00;100515.97;5061207;28;20044;-77
2024/03/05 09:46:48;;;;;;;1.25;1.20;;;;;;;7.01;100.00;100491.78;5058237;28;20045;-76
2024/03/05 09:49:15;;;;;;;0.50;0.50;;;;;;;6.86;100.00;100489.78;5062744;28;20488;-77
2024/03/05 09:51:42;;;;;;;1.70;1.60;;;;;;;6.92;100.00;100488.16;5065253;28;20056;-75
2024/03/05 09:54:17;;;;;;;2.63;2.53;;;;;;;7.17;100.00;100483.31;5062587;28;20758;-76
2024/03/05 09:56:45;;;;;;;2.35;2.25;;;;;;;7.00;100.00;100456.09;5065160;28;20229;-77
2024/03/05 09:59:19;;;;;;;2.83;2.65;;;;;;;6.96;100.00;100411.69;5058617;28;20167;-75
2024/03/05 10:01:49;;;;;;;0.75;0.75;;;;;;;7.05;100.00;100464.88;5061899;28;20809;-76
2024/03/05 10:04:16;;;;;;;1.25;1.02;;;;;;;6.64;100.00;100392.97;5056463;28;20160;-75
2024/03/05 10:06:47;;;;;;;2.13;1.95;;;;;;;6.86;100.00;100403.72;5057637;28;20135;-78
2024/03/05 10:09:16;;;;;;;0.50;0.38;;;;;;;7.00;100.00;100388.25;5062517;28;20047;-78
2024/03/05 10:11:42;;;;;;;0.35;0.35;;;;;;;7.30;100.00;100437.38;5057496;28;20035;-76
2024/03/05 10:14:10;;;;;;;1.17;1.13;;;;;;;7.14;100.00;100389.31;5054191;28;20135;-77
2024/03/05 10:16:36;;;;;;;1.00;0.95;;;;;;;7.16;100.00;100351.09;5061662;28;20090;-78
2024/03/05 10:19:17;;;;;;;1.40;1.30;;;;;;;7.49;100.00;100409.78;5049023;28;20059;-76
2024/03/05 10:21:43;;;;;;;5.63;3.60;;;;;;;7.52;100.00;100392.44;5060517;28;20131;-77
2024/03/05 10:24:10;;;;;;;2.05;1.95;;;;;;;7.48;100.00;100379.34;5063592;28;20041;-76
2024/03/05 10:26:38;;;;;;;1.08;0.85;;;;;;;7.43;100.00;100384.50;5065722;28;20377;-76
2024/03/05 10:29:08;;;;;;;6.85;6.47;;;;;;;7.47;100.00;100388.00;5061732;28;20128;-77
2024/03/05 10:31:39;;;;;;;1.45;1.35;;;;;;;7.69;100.00;100368.25;5063298;28;20052;-75
2024/03/05 10:34:08;;;;;;;1.70;1.60;;;;;;;7.40;100.00;100304.41;5049683;28;20075;-78
2024/03/05 10:36:34;;;;;;;0.50;0.50;;;;;;;7.89;100.00;100356.28;5058356;28;20060;-75
2024/03/05 10:39:01;;;;;;;0.50;0.50;;;;;;;7.97;100.00;100357.22;5061710;28;20047;-75
2024/03/05 10:41:32;;;;;;;1.08;1.08;;;;;;;8.09;100.00;100308.56;5069585;28;20036;-76
2024/03/05 10:44:02;;;;;;;0.47;0.47;;;;;;;8.25;100.00;100293.00;5061508;28;20037;-76
2024/03/05 10:46:32;;;;;;;1.55;1.50;;;;;;;8.32;100.00;100313.97;5062973;28;20160;-76
2024/03/05 10:48:59;;;;;;;0.30;0.30;;;;;;;8.29;100.00;100304.38;5065467;28;20048;-76
2024/03/05 10:51:38;;;;;;;0.95;0.95;;;;;;;8.00;100.00;100249.25;5055082;28;20090;-77
2024/03/05 10:54:07;;;;;;;0.63;0.63;;;;;;;8.57;100.00;100304.56;5068464;28;20044;-76
2024/03/05 10:56:35;;;;;;;0.65;0.65;;;;;;;7.95;100.00;100227.44;5066278;28;20060;-75
2024/03/05 11:01:42;;;;;;;0.82;0.82;;;;;;;8.80;100.00;100291.63;5061962;28;20068;-75
2024/03/05 11:04:14;;;;;;;0.65;0.65;;;;;;;8.79;100.00;100221.88;5065125;28;20059;-74
2024/03/05 11:06:40;;;;;;;0.55;0.55;;;;;;;8.70;100.00;100250.59;5068828;27;20040;-76
2024/03/05 11:09:10;;;;;;;0.68;0.68;;;;;;;8.95;100.00;100213.22;5063632;28;20974;-77
2024/03/05 11:11:43;;;;;;;6.20;5.90;;;;;;;9.44;100.00;100251.75;5062448;28;20565;-76
2024/03/05 11:14:10;;;;;;;0.68;0.68;;;;;;;9.69;100.00;100253.53;5062429;28;20065;-75
2024/03/05 11:16:36;;;;;;;1.40;1.38;;;;;;;9.28;100.00;100209.81;5062043;28;20587;-75
2024/03/05 11:19:08;;;;;;;0.50;0.50;;;;;;;9.28;100.00;100238.59;5067739;28;20052;-78
2024/03/05 11:21:42;;;;;;;2.75;2.58;;;;;;;9.27;100.00;100251.69;5067070;28;20174;-77
2024/03/05 11:24:07;;;;;;;;;;;;;;;9.27;100.00;100251.69;5054902;28;20040;-75
2024/03/05 11:26:34;;;;;;;5.15;4.72;;;;;;;9.15;100.00;100225.47;5048274;28;20376;-76
2024/03/05 11:29:24;;;;;;;1.13;1.05;;;;;;;9.52;100.00;100218.56;5051361;28;20681;-75
2024/03/05 11:31:52;;;;;;;1.75;1.65;;;;;;;9.87;100.00;100243.91;5056982;28;20037;-78
2024/03/05 11:34:18;;;;;;;1.75;1.65;;;;;;;9.97;100.00;100235.16;5060642;28;20059;-77
2024/03/05 11:36:47;;;;;;;1.63;1.58;;;;;;;9.27;100.00;100213.31;5064968;28;20766;-77
2024/03/05 11:39:17;;;;;;;1.55;1.45;;;;;;;9.38;100.00;100221.16;5050320;28;20207;-76
2024/03/05 11:41:45;;;;;;;2.08;1.85;;;;;;;9.95;100.00;100234.31;5064307;28;20028;-76